aviador You're here:

KPNC Decoded Metar

PONCA CITY in OK, USA
Report Time2017-07-22 09:53:00
UTC Time2017-07-22 10:38:27
Flight Rules vfr VFR
Wind190° at 04 kt
W.Decomp.*RWY 17: 3.9 kt HW 1.0 kt RCW
W.Rank190° ranks 7
Current wind is below 190° avg. (6.9)
Visibility9999 m
Phenomena:N/A
Clouds:N/A
Expected CloudBase > 3,200 ft AGL from Temp-Dew spread
CeilingNone
Temp28°C (ISA +15)
Dew Point20°C (62% RH)
Heat Index29.7°C
QNH1012 hPa
Density Alt3,081 ft
Elevation1,010 ft
Report Wrong Elevation
Raw Report
KPNC 220953Z AUTO 19004KT 10SM CLR 28/20 A2988 RMK AO2 SLP102
T02780200 TSNO=

Extra information for KPNC:More info

Metar Taf Metar & Taf Last 4 Metars F.Rules Stats Wind Profile Meteogram Temp Stats Airport Information Weather charts Add Link Nearby VenuesMetar ALERT Operation Metar Decoded Social comments

AIRNAV info for KPNC